Time;durP1;ratioP1;P1;durP2;ratioP2;P2;SDS_P1;SDS_P2;PMS_P1;PMS_P2;Temp;Humidity;BMP_temperature;BMP_pressure;BME280_temperature;BME280_humidity;BME280_pressure;Samples;Min_cycle;Max_cycle;Signal;HPM_P1;HPM_P2
2024/03/08 00:02:15;;;;;;;8.63;3.15;;;29.20;99.90;;;;;;5045111;28;20020;-71
2024/03/08 00:04:42;;;;;;;9.63;3.65;;;29.40;99.90;;;;;;5035576;28;20033;-63
2024/03/08 00:07:09;;;;;;;7.32;3.30;;;29.70;99.90;;;;;;5032453;28;20029;-63
2024/03/08 00:09:36;;;;;;;5.40;3.08;;;30.00;99.90;;;;;;5041563;28;20057;-64
2024/03/08 00:12:03;;;;;;;6.63;2.92;;;30.30;99.90;;;;;;5039967;28;20071;-64
2024/03/08 00:14:30;;;;;;;6.30;2.67;;;30.20;99.90;;;;;;5035985;28;20098;-74
2024/03/08 00:16:57;;;;;;;6.85;3.00;;;30.30;99.90;;;;;;5039283;28;20017;-74
2024/03/08 00:19:24;;;;;;;5.63;3.00;;;30.70;99.90;;;;;;5033220;28;20548;-64
2024/03/08 00:21:51;;;;;;;4.65;2.65;;;31.00;99.90;;;;;;5044807;28;20108;-72
2024/03/08 00:24:18;;;;;;;5.47;3.10;;;31.10;99.90;;;;;;5036824;28;20032;-74
2024/03/08 00:26:45;;;;;;;6.53;3.00;;;31.20;99.90;;;;;;5031935;28;20411;-74
2024/03/08 00:29:13;;;;;;;5.20;2.60;;;31.50;99.90;;;;;;5039068;28;20031;-64
2024/03/08 00:31:40;;;;;;;4.90;2.55;;;31.80;99.90;;;;;;5028606;28;20037;-64
2024/03/08 00:34:07;;;;;;;6.43;2.70;;;31.80;99.90;;;;;;5032486;28;20044;-64
2024/03/08 00:36:34;;;;;;;6.60;3.30;;;31.50;99.90;;;;;;5039463;28;20159;-73
2024/03/08 00:39:01;;;;;;;9.85;3.25;;;31.60;99.90;;;;;;5039947;28;20025;-65
2024/03/08 00:41:28;;;;;;;5.10;2.50;;;31.60;99.90;;;;;;5045958;28;20697;-64
2024/03/08 00:43:55;;;;;;;3.55;2.50;;;31.30;99.90;;;;;;5022208;28;20400;-64
2024/03/08 00:46:22;;;;;;;7.65;3.33;;;31.30;99.90;;;;;;5040626;28;20025;-73
2024/03/08 00:48:49;;;;;;;4.28;2.72;;;31.80;99.90;;;;;;5043068;28;20182;-64
2024/03/08 00:51:16;;;;;;;4.20;2.30;;;32.00;99.90;;;;;;5043578;28;20029;-64
2024/03/08 00:53:43;;;;;;;6.60;3.08;;;31.80;99.90;;;;;;5035455;28;20845;-63
2024/03/08 00:56:10;;;;;;;8.35;3.05;;;31.50;99.90;;;;;;5037929;28;20032;-64
2024/03/08 00:58:38;;;;;;;5.63;3.20;;;31.40;99.90;;;;;;5042378;28;20048;-73
2024/03/08 01:01:05;;;;;;;5.70;3.00;;;31.20;99.90;;;;;;5043817;28;20024;-73
2024/03/08 01:03:33;;;;;;;8.18;3.60;;;30.70;99.90;;;;;;5034570;28;20075;-74
2024/03/08 01:06:04;;;;;;;5.32;2.80;;;30.40;99.90;;;;;;5040963;28;20056;-63
2024/03/08 01:08:31;;;;;;;5.77;3.50;;;30.00;99.90;;;;;;5042691;28;20037;-63
2024/03/08 01:10:58;;;;;;;9.48;4.18;;;30.00;99.90;;;;;;5041777;28;20661;-65
2024/03/08 01:13:25;;;;;;;6.10;4.30;;;30.20;99.90;;;;;;5042802;28;20028;-73
2024/03/08 01:15:52;;;;;;;6.05;3.42;;;30.50;99.90;;;;;;5030916;28;20053;-64
2024/03/08 01:18:19;;;;;;;5.68;3.70;;;31.00;99.90;;;;;;5031859;28;20047;-74
2024/03/08 01:20:46;;;;;;;9.60;4.22;;;31.10;99.90;;;;;;5043993;28;20040;-73
2024/03/08 01:23:14;;;;;;;5.40;4.03;;;31.20;99.90;;;;;;5045122;28;20028;-64
2024/03/08 01:25:41;;;;;;;5.18;3.50;;;31.10;99.90;;;;;;5036218;28;20076;-73
2024/03/08 01:28:09;;;;;;;6.50;3.63;;;30.90;99.90;;;;;;5042493;28;20052;-73
2024/03/08 01:30:37;;;;;;;8.32;3.65;;;30.80;99.90;;;;;;5040093;28;20076;-74
2024/03/08 01:33:04;;;;;;;3.83;3.40;;;31.10;99.90;;;;;;5041118;28;20024;-72
2024/03/08 01:35:31;;;;;;;6.05;3.85;;;31.30;99.90;;;;;;5030944;28;20688;-65
2024/03/08 01:37:58;;;;;;;6.70;4.50;;;31.60;99.90;;;;;;5044063;28;20256;-72
2024/03/08 01:40:25;;;;;;;5.10;3.50;;;32.00;99.90;;;;;;5043625;28;20055;-75
2024/03/08 01:42:53;;;;;;;5.60;3.78;;;32.60;99.90;;;;;;5046132;28;20020;-65
2024/03/08 01:45:20;;;;;;;5.88;4.55;;;32.90;99.90;;;;;;5037310;28;20384;-74
2024/03/08 01:47:48;;;;;;;5.00;3.72;;;32.80;99.90;;;;;;5039627;28;20071;-74
2024/03/08 01:50:15;;;;;;;6.88;4.10;;;32.60;99.90;;;;;;5041179;28;20029;-64
2024/03/08 01:52:43;;;;;;;7.18;4.25;;;32.90;99.80;;;;;;5039706;28;20020;-65
2024/03/08 01:55:11;;;;;;;6.43;4.03;;;32.80;99.60;;;;;;5037271;28;20166;-65
2024/03/08 01:57:38;;;;;;;5.95;3.63;;;32.00;99.90;;;;;;5039208;28;20028;-64
2024/03/08 02:00:06;;;;;;;4.85;3.70;;;31.40;99.70;;;;;;5038495;28;20040;-62
2024/03/08 02:02:37;;;;;;;16.42;12.60;;;31.40;99.90;;;;;;5044029;28;20029;-72
2024/03/08 02:05:06;;;;;;;8.05;3.45;;;31.60;99.90;;;;;;5038083;28;20060;-64
2024/03/08 02:07:33;;;;;;;7.60;6.53;;;32.10;99.60;;;;;;5037688;28;20026;-74
2024/03/08 02:10:00;;;;;;;6.07;3.58;;;33.00;99.90;;;;;;5036542;28;20021;-73
2024/03/08 02:12:28;;;;;;;6.47;3.42;;;33.50;98.70;;;;;;5041205;28;20036;-73
2024/03/08 02:14:55;;;;;;;8.15;3.78;;;33.20;98.00;;;;;;5043309;28;20096;-64
2024/03/08 02:17:22;;;;;;;7.10;3.45;;;32.70;98.60;;;;;;5037794;28;20029;-63
2024/03/08 02:19:49;;;;;;;6.80;3.42;;;32.10;98.50;;;;;;5037959;28;20025;-63
2024/03/08 02:22:17;;;;;;;9.02;5.68;;;31.70;98.90;;;;;;5034938;28;20362;-64
2024/03/08 02:24:44;;;;;;;9.32;6.28;;;31.50;99.90;;;;;;5043172;28;20021;-64
2024/03/08 02:27:11;;;;;;;7.38;5.15;;;31.40;99.90;;;;;;5042412;28;20037;-63
2024/03/08 02:29:40;;;;;;;6.43;3.92;;;31.40;99.70;;;;;;5044664;28;20017;-69
2024/03/08 02:32:07;;;;;;;5.60;4.10;;;31.10;99.60;;;;;;5050056;28;20098;-72
2024/03/08 02:34:34;;;;;;;6.75;4.10;;;31.00;99.90;;;;;;5041100;28;20069;-73
2024/03/08 02:37:01;;;;;;;7.13;4.07;;;30.90;99.90;;;;;;5045161;28;20028;-64
2024/03/08 02:39:28;;;;;;;7.28;4.90;;;31.00;99.90;;;;;;5047896;28;20029;-63
2024/03/08 02:41:56;;;;;;;6.88;4.18;;;31.10;99.90;;;;;;5049759;28;20028;-73
2024/03/08 02:44:23;;;;;;;7.10;3.72;;;31.20;99.90;;;;;;5043811;28;20036;-63
2024/03/08 02:46:50;;;;;;;4.93;3.97;;;31.90;99.90;;;;;;5048154;28;20020;-72
2024/03/08 02:49:17;;;;;;;7.60;4.97;;;32.80;99.90;;;;;;5045637;28;20083;-73
2024/03/08 02:51:44;;;;;;;4.97;4.30;;;33.60;99.00;;;;;;5049616;28;20038;-73
2024/03/08 02:54:11;;;;;;;6.47;4.78;;;34.20;98.40;;;;;;5044433;28;20607;-64
2024/03/08 02:56:38;;;;;;;4.97;3.40;;;34.60;97.30;;;;;;5041198;28;20025;-65
2024/03/08 02:59:05;;;;;;;5.38;3.30;;;34.90;96.50;;;;;;5042793;28;20137;-64
2024/03/08 03:01:33;;;;;;;6.47;3.33;;;34.80;96.80;;;;;;5045256;28;20029;-73
2024/03/08 03:04:00;;;;;;;5.22;3.15;;;35.10;96.80;;;;;;5039957;28;20105;-63
2024/03/08 03:06:27;;;;;;;4.65;3.03;;;34.60;96.80;;;;;;5040462;28;20476;-64
2024/03/08 03:08:54;;;;;;;5.60;3.20;;;33.90;96.30;;;;;;5040224;28;20017;-63
2024/03/08 03:11:22;;;;;;;6.13;3.35;;;33.10;97.20;;;;;;5045071;28;20112;-73
2024/03/08 03:13:49;;;;;;;4.03;2.70;;;33.40;97.60;;;;;;5046978;28;20419;-64
2024/03/08 03:16:22;;;;;;;3.78;2.60;;;33.80;97.60;;;;;;5044021;28;20028;-64
2024/03/08 03:18:49;;;;;;;4.13;2.40;;;33.60;97.10;;;;;;5041957;28;20052;-72
2024/03/08 03:21:17;;;;;;;2.85;2.22;;;32.90;98.10;;;;;;5037918;28;20148;-64
2024/03/08 03:23:44;;;;;;;5.47;2.92;;;32.20;99.00;;;;;;5036626;28;20037;-64
2024/03/08 03:26:12;;;;;;;5.53;2.83;;;32.00;98.80;;;;;;5039612;28;20059;-66
2024/03/08 03:28:39;;;;;;;5.32;2.60;;;31.70;99.40;;;;;;5041112;28;20403;-70
2024/03/08 03:31:08;;;;;;;4.20;3.00;;;31.40;99.60;;;;;;5040343;28;20425;-65
2024/03/08 03:33:36;;;;;;;5.32;2.50;;;31.30;99.90;;;;;;5039911;28;20111;-66
2024/03/08 03:36:05;;;;;;;5.00;2.53;;;31.20;99.30;;;;;;5035209;28;20029;-71
2024/03/08 03:38:33;;;;;;;5.80;2.60;;;31.20;99.60;;;;;;5039469;28;20033;-65
2024/03/08 03:41:09;;;;;;;4.68;2.60;;;32.00;99.90;;;;;;5035995;28;20029;-65
2024/03/08 03:43:38;;;;;;;3.33;2.00;;;32.90;98.60;;;;;;5032667;28;20402;-64
2024/03/08 03:46:10;;;;;;;6.65;2.55;;;33.40;97.50;;;;;;5036097;28;20033;-66
2024/03/08 03:48:37;;;;;;;4.03;2.30;;;33.50;98.10;;;;;;5038007;28;20042;-66
2024/03/08 03:51:04;;;;;;;4.03;2.15;;;33.20;98.00;;;;;;5039577;28;20479;-70
2024/03/08 03:53:31;;;;;;;4.10;2.50;;;32.90;98.80;;;;;;5041122;28;20032;-65
2024/03/08 03:55:59;;;;;;;6.80;2.95;;;32.40;98.80;;;;;;5035294;28;20049;-66
2024/03/08 03:58:26;;;;;;;4.28;1.88;;;32.10;99.50;;;;;;5040603;28;20087;-62
2024/03/08 04:00:53;;;;;;;4.63;2.00;;;31.80;99.50;;;;;;5044980;28;20548;-63
2024/03/08 04:03:20;;;;;;;4.40;1.92;;;32.40;98.90;;;;;;5038639;28;20017;-63
2024/03/08 04:05:47;;;;;;;11.98;10.70;;;32.50;98.70;;;;;;5037400;28;20060;-69
2024/03/08 04:08:14;;;;;;;6.18;2.85;;;32.80;99.60;;;;;;5038111;28;20021;-66
2024/03/08 04:10:42;;;;;;;4.88;2.22;;;33.60;98.50;;;;;;5036147;28;20036;-61
2024/03/08 04:13:11;;;;;;;5.50;1.80;;;34.20;97.80;;;;;;5042329;28;20484;-62
2024/03/08 04:15:38;;;;;;;4.72;1.70;;;34.50;97.50;;;;;;5039722;28;20637;-61
2024/03/08 04:18:05;;;;;;;4.60;1.58;;;34.10;97.90;;;;;;5038970;28;20476;-62
2024/03/08 04:20:32;;;;;;;4.88;1.88;;;33.80;98.20;;;;;;5038568;28;20605;-67
2024/03/08 04:23:00;;;;;;;6.43;2.22;;;33.70;97.70;;;;;;5040414;28;20013;-68
2024/03/08 04:25:27;;;;;;;5.60;2.53;;;33.70;98.20;;;;;;5037267;28;20025;-64
2024/03/08 04:27:54;;;;;;;4.90;1.92;;;33.80;97.70;;;;;;5042794;28;20037;-66
2024/03/08 04:30:21;;;;;;;4.22;2.60;;;34.30;96.80;;;;;;5039224;28;20025;-63
2024/03/08 04:32:48;;;;;;;8.20;2.20;;;34.80;97.70;;;;;;5039291;28;20782;-63
2024/03/08 04:35:16;;;;;;;4.38;2.00;;;35.20;96.40;;;;;;5039724;28;20038;-62
2024/03/08 04:37:43;;;;;;;6.03;3.17;;;35.00;97.30;;;;;;5034769;28;20472;-63
2024/03/08 04:40:11;;;;;;;6.03;3.70;;;34.60;97.50;;;;;;5036165;28;20053;-63
2024/03/08 04:42:39;;;;;;;6.82;5.97;;;34.20;97.30;;;;;;5035985;28;20104;-70
2024/03/08 04:45:10;;;;;;;5.57;1.52;;;33.70;97.70;;;;;;5041948;28;20064;-67
2024/03/08 04:47:37;;;;;;;3.97;1.52;;;33.80;97.50;;;;;;5045083;28;20024;-70
2024/03/08 04:50:05;;;;;;;5.82;2.03;;;33.90;98.10;;;;;;5035702;28;20109;-62
2024/03/08 04:52:32;;;;;;;3.40;1.27;;;34.30;98.20;;;;;;5051338;28;20542;-63
2024/03/08 04:54:59;;;;;;;4.65;1.67;;;34.30;97.40;;;;;;5052199;28;20032;-71
2024/03/08 04:57:27;;;;;;;5.38;1.35;;;33.30;98.30;;;;;;5049624;28;20392;-67
2024/03/08 04:59:54;;;;;;;3.55;1.42;;;32.70;99.20;;;;;;5046393;28;20593;-61
2024/03/08 05:02:25;;;;;;;5.13;1.50;;;33.00;98.70;;;;;;5049697;28;20443;-68
2024/03/08 05:04:52;;;;;;;4.50;1.40;;;33.60;97.80;;;;;;5049458;28;20024;-68
2024/03/08 05:07:19;;;;;;;2.58;1.30;;;33.90;98.10;;;;;;5046803;28;20376;-68
2024/03/08 05:09:51;;;;;;;4.22;1.70;;;34.40;97.20;;;;;;5049111;28;20040;-68
2024/03/08 05:12:18;;;;;;;;;;;34.50;96.70;;;;;;5047906;28;20013;-59
2024/03/08 05:14:49;;;;;;;3.30;1.48;;;34.10;96.90;;;;;;5041223;28;20307;-69
2024/03/08 05:17:17;;;;;;;5.65;1.73;;;33.60;97.10;;;;;;5043019;28;20028;-70
2024/03/08 05:19:44;;;;;;;7.35;5.30;;;33.10;97.50;;;;;;5041708;28;20103;-69
2024/03/08 05:22:11;;;;;;;2.97;1.23;;;32.80;97.80;;;;;;5043991;28;20024;-62
2024/03/08 05:24:38;;;;;;;3.75;1.60;;;32.60;97.70;;;;;;5054443;28;20688;-70
2024/03/08 05:27:06;;;;;;;5.25;4.10;;;32.20;98.50;;;;;;5045826;28;20044;-63
2024/03/08 05:29:35;;;;;;;5.00;1.60;;;32.00;99.00;;;;;;5045421;28;20487;-66
2024/03/08 05:32:03;;;;;;;3.30;1.65;;;31.80;99.10;;;;;;5049047;28;20515;-70
2024/03/08 05:34:31;;;;;;;6.00;1.60;;;31.80;99.10;;;;;;5029089;28;20052;-68
2024/03/08 05:36:58;;;;;;;3.47;1.98;;;31.70;99.30;;;;;;5044088;28;20028;-63
2024/03/08 05:39:25;;;;;;;2.05;1.00;;;31.60;99.10;;;;;;5046297;28;20470;-71
2024/03/08 05:41:52;;;;;;;3.22;1.40;;;31.60;98.50;;;;;;5048616;28;20233;-64
2024/03/08 05:44:19;;;;;;;4.63;1.65;;;31.50;98.80;;;;;;5045586;28;20063;-72
2024/03/08 05:46:46;;;;;;;3.30;1.10;;;31.80;98.70;;;;;;5048284;28;20143;-64
2024/03/08 05:49:13;;;;;;;2.75;0.98;;;32.30;98.00;;;;;;5050287;28;20029;-71
2024/03/08 05:51:41;;;;;;;4.90;1.35;;;33.10;98.70;;;;;;5051015;28;20059;-71
2024/03/08 05:54:12;;;;;;;1.40;1.10;;;33.50;97.40;;;;;;5046744;28;20033;-64
2024/03/08 05:56:43;;;;;;;2.72;1.02;;;33.30;97.20;;;;;;5046214;28;20517;-61
2024/03/08 05:59:11;;;;;;;3.67;1.10;;;32.70;97.30;;;;;;5050331;28;20039;-70
2024/03/08 06:01:40;;;;;;;1.70;0.88;;;32.50;97.50;;;;;;5047345;28;20318;-66
2024/03/08 06:04:07;;;;;;;2.83;1.17;;;32.80;97.10;;;;;;5044383;28;20040;-62
2024/03/08 06:06:37;;;;;;;1.55;0.73;;;33.10;96.70;;;;;;5045689;28;20025;-63
2024/03/08 06:09:10;;;;;;;3.20;1.25;;;33.40;96.50;;;;;;5032517;28;20117;-72
2024/03/08 06:11:38;;;;;;;2.45;0.77;;;33.60;96.40;;;;;;5030425;28;20044;-63
2024/03/08 06:14:05;;;;;;;1.88;0.85;;;34.00;95.60;;;;;;5047069;28;20029;-64
2024/03/08 06:16:33;;;;;;;5.68;1.00;;;34.00;96.20;;;;;;5049075;28;20067;-71
2024/03/08 06:19:02;;;;;;;3.22;1.20;;;34.00;95.80;;;;;;5046575;28;20529;-65
2024/03/08 06:21:29;;;;;;;1.42;0.60;;;34.20;96.20;;;;;;5042003;28;20025;-63
2024/03/08 06:23:57;;;;;;;5.18;1.20;;;34.20;96.50;;;;;;5046124;28;21807;-62
2024/03/08 06:26:25;;;;;;;1.63;0.90;;;34.00;95.30;;;;;;5046600;28;20021;-69
2024/03/08 06:28:52;;;;;;;2.47;0.70;;;33.60;95.80;;;;;;5047669;28;20036;-64
2024/03/08 06:31:19;;;;;;;3.60;1.10;;;33.30;95.50;;;;;;5049834;28;20017;-72
2024/03/08 06:33:48;;;;;;;4.93;3.13;;;33.20;96.50;;;;;;5046119;28;20123;-73
2024/03/08 06:36:21;;;;;;;2.95;1.02;;;33.40;95.80;;;;;;5044757;28;20439;-62
2024/03/08 06:38:49;;;;;;;3.90;1.45;;;33.50;95.60;;;;;;5051422;28;20027;-71
2024/03/08 06:41:16;;;;;;;3.30;1.05;;;33.80;95.50;;;;;;5048117;28;20027;-71
2024/03/08 06:43:48;;;;;;;2.13;0.80;;;33.80;95.60;;;;;;5048678;28;20251;-72
2024/03/08 06:46:18;;;;;;;;;;;34.10;95.10;;;;;;5050444;28;20033;-71
2024/03/08 06:48:49;;;;;;;4.15;0.88;;;34.60;94.60;;;;;;5030937;28;20410;-72
2024/03/08 06:51:16;;;;;;;4.23;1.33;;;34.40;94.40;;;;;;5045181;28;20025;-72
2024/03/08 06:53:44;;;;;;;3.33;1.33;;;34.60;94.30;;;;;;5048809;28;20261;-64
2024/03/08 06:56:11;;;;;;;6.78;1.33;;;34.40;93.90;;;;;;5046532;28;20109;-73
2024/03/08 06:58:38;;;;;;;5.10;1.23;;;34.50;94.00;;;;;;5046274;28;20036;-73
2024/03/08 07:01:07;;;;;;;4.97;2.55;;;34.50;94.00;;;;;;5039590;28;20032;-75
2024/03/08 07:03:34;;;;;;;2.47;1.60;;;34.60;93.20;;;;;;5046983;28;20028;-62
2024/03/08 07:06:02;;;;;;;2.25;1.13;;;34.50;92.70;;;;;;5047593;28;20032;-69
2024/03/08 07:08:29;;;;;;;2.08;1.17;;;34.60;93.30;;;;;;5047002;28;20454;-72
2024/03/08 07:10:58;;;;;;;3.42;1.15;;;34.40;92.50;;;;;;5042454;28;20175;-63
2024/03/08 07:13:25;;;;;;;1.80;1.10;;;34.40;92.20;;;;;;5044429;28;20675;-73
2024/03/08 07:15:52;;;;;;;3.80;1.02;;;34.40;92.10;;;;;;5051148;28;20419;-63
2024/03/08 07:18:19;;;;;;;2.22;0.88;;;34.80;92.10;;;;;;5051523;28;21024;-63
2024/03/08 07:20:46;;;;;;;2.35;0.77;;;34.90;91.50;;;;;;5048653;28;20356;-63
2024/03/08 07:23:46;;;;;;;0.93;0.50;;;34.50;91.40;;;;;;5052711;28;20640;-64
2024/03/08 07:26:01;;;;;;;3.88;0.68;;;34.50;91.40;;;;;;5047015;28;20039;-76
2024/03/08 07:28:30;;;;;;;2.50;0.60;;;34.20;91.10;;;;;;5051715;28;20058;-59
2024/03/08 07:31:26;;;;;;;0.93;0.47;;;34.20;91.70;;;;;;5047724;28;20059;-67
2024/03/08 07:33:53;;;;;;;1.63;0.50;;;34.10;92.40;;;;;;5051159;28;20364;-73
2024/03/08 07:36:22;;;;;;;4.13;0.80;;;34.40;91.50;;;;;;5051944;28;20020;-61
2024/03/08 07:38:49;;;;;;;1.10;0.60;;;34.40;91.70;;;;;;5049839;28;20028;-63
2024/03/08 07:41:16;;;;;;;2.30;0.60;;;34.10;92.50;;;;;;5050872;28;20032;-71
2024/03/08 07:43:43;;;;;;;1.42;0.73;;;33.50;92.50;;;;;;5050343;28;20420;-63
2024/03/08 07:46:10;;;;;;;5.65;3.42;;;33.10;92.80;;;;;;5048020;28;20100;-64
2024/03/08 07:48:39;;;;;;;3.78;2.08;;;32.80;93.00;;;;;;5053299;28;20035;-62
2024/03/08 07:51:09;;;;;;;2.40;1.20;;;32.60;93.20;;;;;;5050134;28;20028;-75
2024/03/08 07:53:36;;;;;;;1.75;0.80;;;32.20;93.30;;;;;;5047749;28;20028;-62
2024/03/08 07:56:04;;;;;;;3.38;1.10;;;31.60;94.00;;;;;;5051134;28;20546;-61
2024/03/08 07:58:31;;;;;;;2.03;0.93;;;31.30;94.10;;;;;;5050095;28;20142;-70
2024/03/08 08:00:59;;;;;;;4.90;1.90;;;30.60;95.20;;;;;;5046422;28;20560;-61
2024/03/08 08:03:27;;;;;;;3.28;1.15;;;29.80;96.20;;;;;;5052375;28;20056;-62
2024/03/08 08:05:54;;;;;;;2.22;0.98;;;29.20;96.70;;;;;;5052651;28;20036;-72
2024/03/08 08:08:21;;;;;;;4.38;1.27;;;28.70;97.70;;;;;;5050567;28;20034;-62
2024/03/08 08:10:49;;;;;;;3.22;1.25;;;28.20;98.20;;;;;;5049534;28;20017;-72
2024/03/08 08:13:17;;;;;;;4.05;1.15;;;27.80;98.90;;;;;;5054086;28;20384;-71
2024/03/08 08:15:45;;;;;;;3.17;1.10;;;27.70;99.40;;;;;;5050083;28;20037;-70
2024/03/08 08:18:14;;;;;;;2.00;0.80;;;27.40;99.90;;;;;;5050211;28;20072;-71
2024/03/08 08:20:41;;;;;;;2.90;0.73;;;27.30;99.90;;;;;;5049463;28;20024;-70
2024/03/08 08:23:08;;;;;;;2.45;0.90;;;27.10;99.90;;;;;;5051695;28;20106;-69
2024/03/08 08:25:35;;;;;;;3.88;1.10;;;26.90;99.90;;;;;;5051003;28;20021;-62
2024/03/08 08:28:03;;;;;;;4.13;0.85;;;26.80;99.90;;;;;;5034605;28;20025;-62
2024/03/08 08:30:32;;;;;;;2.17;0.90;;;26.60;99.90;;;;;;5053681;28;20032;-63
2024/03/08 08:33:00;;;;;;;3.53;1.08;;;26.60;99.90;;;;;;5049566;28;20024;-62
2024/03/08 08:35:28;;;;;;;2.45;0.60;;;26.50;99.90;;;;;;5049689;28;20553;-63
2024/03/08 08:37:55;;;;;;;2.13;0.88;;;26.40;99.90;;;;;;5051877;28;20756;-73
2024/03/08 08:40:22;;;;;;;2.53;0.93;;;26.50;99.90;;;;;;5051482;28;20186;-70
2024/03/08 08:42:49;;;;;;;7.35;1.52;;;26.40;99.90;;;;;;5050649;28;20029;-59
2024/03/08 08:45:17;;;;;;;8.70;2.00;;;26.30;99.90;;;;;;5049711;28;20032;-71
2024/03/08 08:47:49;;;;;;;7.10;1.77;;;26.20;99.90;;;;;;5049548;28;20115;-61
2024/03/08 08:50:22;;;;;;;3.83;1.45;;;26.10;99.90;;;;;;5050889;28;20131;-61
2024/03/08 08:52:50;;;;;;;4.90;1.50;;;25.80;99.90;;;;;;5049310;28;20025;-62
2024/03/08 08:55:20;;;;;;;4.03;1.15;;;25.80;99.90;;;;;;5052370;28;20032;-72
2024/03/08 08:57:48;;;;;;;3.75;1.20;;;25.70;99.90;;;;;;5053254;28;20021;-62
2024/03/08 09:00:15;;;;;;;4.35;1.17;;;25.70;99.90;;;;;;5049017;28;20123;-72
2024/03/08 09:02:43;;;;;;;3.47;0.90;;;25.70;99.90;;;;;;5050365;28;20035;-61
2024/03/08 09:05:11;;;;;;;3.75;1.30;;;25.60;99.90;;;;;;5053261;28;20810;-63
2024/03/08 09:07:38;;;;;;;4.20;1.25;;;25.60;99.90;;;;;;5051374;28;20653;-61
2024/03/08 09:10:05;;;;;;;3.13;1.25;;;25.60;99.90;;;;;;5046820;28;20375;-61
2024/03/08 09:12:32;;;;;;;4.13;1.45;;;25.40;99.90;;;;;;5048051;28;20091;-61
2024/03/08 09:14:59;;;;;;;4.90;1.55;;;25.30;99.90;;;;;;5047033;28;20024;-61
2024/03/08 09:17:26;;;;;;;2.05;1.48;;;25.10;99.90;;;;;;5045179;28;20021;-75
2024/03/08 09:19:54;;;;;;;4.72;1.70;;;25.10;99.90;;;;;;5047496;28;20514;-60
2024/03/08 09:22:21;;;;;;;6.40;2.10;;;25.10;99.90;;;;;;5048387;28;20060;-62
2024/03/08 09:24:48;;;;;;;2.97;1.58;;;24.90;99.90;;;;;;5048664;28;20491;-68
2024/03/08 09:27:15;;;;;;;2.92;1.23;;;24.90;99.90;;;;;;5042576;28;20033;-75
2024/03/08 09:29:44;;;;;;;3.00;1.40;;;24.90;99.90;;;;;;5044987;28;20075;-75
2024/03/08 09:32:11;;;;;;;5.10;1.90;;;24.90;99.90;;;;;;5047051;28;20040;-73
2024/03/08 09:34:40;;;;;;;5.53;2.03;;;25.00;99.90;;;;;;5093633;22;20577;-60
2024/03/08 09:37:08;;;;;;;5.35;2.90;;;24.90;99.90;;;;;;5045549;28;20544;-60
2024/03/08 09:39:35;;;;;;;3.42;1.00;;;24.80;99.90;;;;;;5044235;28;20561;-61
2024/03/08 09:42:03;;;;;;;3.92;1.60;;;24.80;99.90;;;;;;5028792;28;20123;-61
2024/03/08 09:44:34;;;;;;;2.30;1.38;;;24.70;99.90;;;;;;5027710;28;20028;-69
2024/03/08 09:47:02;;;;;;;3.90;1.67;;;24.70;99.90;;;;;;5045450;28;20032;-68
2024/03/08 09:49:32;;;;;;;3.10;1.40;;;24.60;99.90;;;;;;5042731;28;20324;-70
2024/03/08 09:52:00;;;;;;;3.40;1.27;;;24.40;99.90;;;;;;5027008;28;20103;-60
2024/03/08 09:54:28;;;;;;;4.18;1.30;;;24.50;99.90;;;;;;5030142;28;20031;-74
2024/03/08 09:56:56;;;;;;;2.78;1.05;;;24.40;99.90;;;;;;5024589;28;20072;-67
2024/03/08 10:01:59;;;;;;;2.78;1.20;;;24.30;99.90;;;;;;5046839;28;20028;-62
2024/03/08 10:04:28;;;;;;;;;;;24.30;99.90;;;;;;5047188;28;20035;-74
2024/03/08 10:06:56;;;;;;;3.25;0.75;;;24.40;99.90;;;;;;5028146;28;20417;-76
2024/03/08 10:09:27;;;;;;;2.13;1.23;;;24.50;99.90;;;;;;5049013;28;20016;-60
2024/03/08 10:11:58;;;;;;;1.83;0.90;;;24.40;99.90;;;;;;5048933;28;20012;-69
2024/03/08 10:14:32;;;;;;;4.13;2.13;;;24.30;99.90;;;;;;5048447;28;20116;-60
2024/03/08 10:17:00;;;;;;;5.75;1.60;;;24.20;99.90;;;;;;5030045;28;20800;-73
2024/03/08 10:19:30;;;;;;;4.45;1.73;;;24.20;99.90;;;;;;5045865;28;20031;-75
2024/03/08 10:21:58;;;;;;;5.03;1.67;;;24.20;99.90;;;;;;5042749;28;20044;-60
2024/03/08 10:24:28;;;;;;;3.10;1.45;;;24.10;99.90;;;;;;5047868;28;20040;-72
2024/03/08 10:27:04;;;;;;;2.80;1.15;;;24.20;99.90;;;;;;5030530;28;20750;-60
2024/03/08 10:29:34;;;;;;;2.60;1.10;;;24.10;99.90;;;;;;5028351;28;20032;-61
2024/03/08 10:32:04;;;;;;;2.15;0.90;;;24.10;99.90;;;;;;5027310;28;20037;-73
2024/03/08 10:34:32;;;;;;;4.05;0.88;;;24.10;99.90;;;;;;5026648;28;20048;-61
2024/03/08 10:37:04;;;;;;;4.10;0.90;;;23.90;99.90;;;;;;4677870;28;10000410;-61
2024/03/08 10:39:36;;;;;;;4.47;1.00;;;24.00;99.90;;;;;;5046066;28;20033;-67
2024/03/08 10:42:08;;;;;;;3.35;1.13;;;24.00;99.90;;;;;;5029082;28;20086;-59
2024/03/08 10:44:59;;;;;;;2.63;0.80;;;24.00;99.90;;;;;;5029029;28;20429;-72
2024/03/08 10:47:40;;;;;;;2.25;1.13;;;24.00;99.90;;;;;;5048918;28;20087;-69
2024/03/08 10:50:22;;;;;;;4.03;0.95;;;24.00;99.90;;;;;;5048913;28;20408;-59
2024/03/08 10:52:51;;;;;;;3.15;0.90;;;23.80;99.90;;;;;;5050129;28;20522;-68
2024/03/08 10:55:21;;;;;;;3.60;1.10;;;23.80;99.90;;;;;;5046375;28;20013;-69
2024/03/08 10:57:48;;;;;;;3.35;1.17;;;23.70;99.90;;;;;;5047772;28;20750;-74
2024/03/08 11:00:16;;;;;;;3.97;1.20;;;23.70;99.90;;;;;;5041577;28;20377;-72
2024/03/08 11:02:47;;;;;;;4.50;1.17;;;23.60;99.90;;;;;;5048146;28;20029;-69
2024/03/08 11:05:41;;;;;;;2.25;1.00;;;23.50;99.90;;;;;;5048396;28;20064;-68
2024/03/08 11:08:21;;;;;;;2.13;1.00;;;23.30;99.90;;;;;;5048012;28;21085;-60
2024/03/08 11:10:55;;;;;;;1.98;1.17;;;23.10;99.90;;;;;;5051333;28;20411;-59
2024/03/08 11:13:48;;;;;;;2.70;1.10;;;23.00;99.90;;;;;;5050558;28;20031;-59
2024/03/08 11:16:28;;;;;;;7.38;1.15;;;22.90;99.90;;;;;;5051081;28;20029;-61
2024/03/08 11:19:10;;;;;;;1.55;0.93;;;22.90;99.90;;;;;;5053425;28;20033;-73
2024/03/08 11:21:40;;;;;;;1.40;0.90;;;22.90;99.90;;;;;;5047588;28;20140;-61
2024/03/08 11:24:16;;;;;;;5.53;1.55;;;22.90;99.90;;;;;;5046740;28;20445;-68
2024/03/08 11:26:46;;;;;;;2.65;1.05;;;22.80;99.90;;;;;;5045873;28;20039;-62
2024/03/08 11:29:32;;;;;;;3.33;1.20;;;22.80;99.90;;;;;;5040913;28;20028;-69
2024/03/08 11:32:14;;;;;;;3.13;1.02;;;22.80;99.90;;;;;;5049195;28;20025;-61
2024/03/08 11:34:52;;;;;;;3.97;1.10;;;22.80;99.90;;;;;;5054301;28;20046;-73
2024/03/08 11:37:24;;;;;;;1.70;1.25;;;22.80;99.90;;;;;;5048814;28;20471;-61
2024/03/08 11:39:58;;;;;;;3.13;1.13;;;22.70;99.90;;;;;;5049765;28;20476;-60
2024/03/08 11:42:26;;;;;;;7.05;1.23;;;22.70;99.90;;;;;;5047795;28;20937;-60
2024/03/08 11:44:53;;;;;;;3.35;1.10;;;22.60;99.90;;;;;;5050972;28;20406;-69
2024/03/08 11:47:23;;;;;;;2.75;1.10;;;22.60;99.90;;;;;;5045544;28;20028;-60
2024/03/08 11:49:50;;;;;;;2.58;1.10;;;22.60;99.90;;;;;;5050434;28;20124;-62
2024/03/08 11:52:18;;;;;;;3.13;1.20;;;22.60;99.90;;;;;;5050031;28;20021;-61
2024/03/08 11:54:57;;;;;;;4.63;1.38;;;22.60;99.90;;;;;;5052628;28;20117;-60
2024/03/08 11:57:24;;;;;;;3.42;1.42;;;22.50;99.90;;;;;;5052247;28;20182;-61
2024/03/08 11:59:56;;;;;;;3.05;1.75;;;22.40;99.90;;;;;;5052247;28;20040;-61
2024/03/08 12:02:23;;;;;;;4.30;1.58;;;22.40;99.90;;;;;;5052080;28;20028;-68
2024/03/08 12:05:03;;;;;;;4.18;1.30;;;22.40;99.90;;;;;;5055859;28;20491;-69
2024/03/08 12:07:33;;;;;;;3.13;1.45;;;22.50;99.90;;;;;;5051981;28;20866;-61
2024/03/08 12:10:24;;;;;;;4.25;1.25;;;22.40;99.90;;;;;;5046443;28;20149;-60
2024/03/08 12:12:56;;;;;;;4.57;1.40;;;22.40;99.90;;;;;;5050878;28;20031;-60
2024/03/08 12:15:25;;;;;;;2.45;1.05;;;22.30;99.90;;;;;;5052870;28;20264;-60
2024/03/08 12:17:55;;;;;;;6.78;1.88;;;22.30;99.90;;;;;;5054250;28;21125;-60
2024/03/08 12:20:30;;;;;;;2.53;1.08;;;22.40;99.90;;;;;;5051237;28;20035;-70
2024/03/08 12:22:58;;;;;;;4.93;1.20;;;22.30;99.90;;;;;;5051847;28;20027;-62
2024/03/08 12:25:34;;;;;;;4.97;1.52;;;22.30;99.90;;;;;;5053936;28;20348;-69
2024/03/08 12:28:15;;;;;;;3.40;1.45;;;22.20;99.90;;;;;;5051005;28;20053;-69
2024/03/08 12:30:58;;;;;;;3.78;2.00;;;22.00;99.90;;;;;;5054847;28;20030;-69
2024/03/08 12:33:25;;;;;;;5.07;1.63;;;21.90;99.90;;;;;;5052532;28;20105;-69
2024/03/08 12:35:58;;;;;;;4.07;1.40;;;21.80;99.90;;;;;;5053267;28;20037;-69
2024/03/08 12:38:31;;;;;;;2.10;1.20;;;21.70;99.90;;;;;;5052261;28;20029;-69
2024/03/08 12:41:01;;;;;;;6.18;1.45;;;21.80;99.90;;;;;;5049615;28;20522;-61
2024/03/08 12:43:31;;;;;;;5.20;1.23;;;21.70;99.90;;;;;;5054547;28;20024;-69
2024/03/08 12:45:58;;;;;;;3.45;1.30;;;21.70;99.90;;;;;;5054405;28;20024;-62
2024/03/08 12:48:25;;;;;;;4.35;1.30;;;21.70;99.90;;;;;;5054147;28;20562;-68
2024/03/08 12:50:53;;;;;;;2.38;1.10;;;21.70;99.90;;;;;;5052510;28;20087;-69
2024/03/08 12:53:22;;;;;;;4.55;1.52;;;21.70;99.90;;;;;;5055604;28;20020;-62
2024/03/08 12:55:49;;;;;;;2.63;1.27;;;21.70;99.90;;;;;;5054670;28;20420;-69
2024/03/08 12:58:16;;;;;;;3.28;1.60;;;21.60;99.90;;;;;;5052393;28;20021;-69
2024/03/08 13:00:43;;;;;;;2.60;1.38;;;21.50;99.90;;;;;;5053049;28;20115;-68